sensor_id;sensor_type;location;lat;lon;timestamp;temperature;humidity
14210;DHT22;7188;56.070;12.698;2022-09-28T00:02:16;11.20;99.90
14210;DHT22;7188;56.070;12.698;2022-09-28T00:04:42;11.20;99.90
14210;DHT22;7188;56.070;12.698;2022-09-28T00:07:07;11.20;99.90
14210;DHT22;7188;56.070;12.698;2022-09-28T00:09:33;11.20;99.90
14210;DHT22;7188;56.070;12.698;2022-09-28T00:11:59;11.10;99.90
14210;DHT22;7188;56.070;12.698;2022-09-28T00:14:24;11.10;99.90
14210;DHT22;7188;56.070;12.698;2022-09-28T00:16:50;11.10;99.90
14210;DHT22;7188;56.070;12.698;2022-09-28T00:19:17;11.10;99.90
14210;DHT22;7188;56.070;12.698;2022-09-28T00:21:43;11.10;99.90
14210;DHT22;7188;56.070;12.698;2022-09-28T00:24:13;11.00;99.90
14210;DHT22;7188;56.070;12.698;2022-09-28T00:26:56;11.00;99.90
14210;DHT22;7188;56.070;12.698;2022-09-28T00:29:24;11.10;99.90
14210;DHT22;7188;56.070;12.698;2022-09-28T00:31:55;11.00;99.90
14210;DHT22;7188;56.070;12.698;2022-09-28T00:34:24;11.10;99.90
14210;DHT22;7188;56.070;12.698;2022-09-28T00:36:50;11.00;99.90
14210;DHT22;7188;56.070;12.698;2022-09-28T00:39:16;11.00;99.90
14210;DHT22;7188;56.070;12.698;2022-09-28T00:41:43;11.00;99.90
14210;DHT22;7188;56.070;12.698;2022-09-28T00:49:21;11.00;99.90
14210;DHT22;7188;56.070;12.698;2022-09-28T00:51:48;11.00;99.90
14210;DHT22;7188;56.070;12.698;2022-09-28T00:54:15;11.00;99.90
14210;DHT22;7188;56.070;12.698;2022-09-28T00:56:43;11.00;99.90
14210;DHT22;7188;56.070;12.698;2022-09-28T00:59:09;11.00;99.90
14210;DHT22;7188;56.070;12.698;2022-09-28T01:01:35;11.00;99.90
14210;DHT22;7188;56.070;12.698;2022-09-28T01:04:03;11.00;99.90
14210;DHT22;7188;56.070;12.698;2022-09-28T01:06:33;11.00;99.90
14210;DHT22;7188;56.070;12.698;2022-09-28T01:09:02;11.10;99.90
14210;DHT22;7188;56.070;12.698;2022-09-28T01:11:33;11.00;99.90
14210;DHT22;7188;56.070;12.698;2022-09-28T01:14:00;11.00;99.90
14210;DHT22;7188;56.070;12.698;2022-09-28T01:27:58;11.10;99.90
14210;DHT22;7188;56.070;12.698;2022-09-28T01:30:29;11.10;99.90
14210;DHT22;7188;56.070;12.698;2022-09-28T01:33:05;11.20;99.90
14210;DHT22;7188;56.070;12.698;2022-09-28T01:35:46;11.20;99.90
14210;DHT22;7188;56.070;12.698;2022-09-28T01:38:18;11.20;99.90
14210;DHT22;7188;56.070;12.698;2022-09-28T01:40:46;11.20;99.90
14210;DHT22;7188;56.070;12.698;2022-09-28T01:43:24;11.10;99.90
14210;DHT22;7188;56.070;12.698;2022-09-28T01:45:54;11.10;99.90
14210;DHT22;7188;56.070;12.698;2022-09-28T01:48:55;11.10;99.90
14210;DHT22;7188;56.070;12.698;2022-09-28T01:51:34;11.10;99.90
14210;DHT22;7188;56.070;12.698;2022-09-28T01:54:12;11.10;99.90
14210;DHT22;7188;56.070;12.698;2022-09-28T01:56:43;11.20;99.90
14210;DHT22;7188;56.070;12.698;2022-09-28T01:59:16;11.10;99.90
14210;DHT22;7188;56.070;12.698;2022-09-28T02:02:03;11.10;99.90
14210;DHT22;7188;56.070;12.698;2022-09-28T02:04:38;11.20;99.90
14210;DHT22;7188;56.070;12.698;2022-09-28T02:07:16;11.20;99.90
14210;DHT22;7188;56.070;12.698;2022-09-28T02:09:54;11.10;99.90
14210;DHT22;7188;56.070;12.698;2022-09-28T02:12:43;11.20;99.90
14210;DHT22;7188;56.070;12.698;2022-09-28T02:15:18;11.20;99.90
14210;DHT22;7188;56.070;12.698;2022-09-28T02:17:44;11.10;99.90
14210;DHT22;7188;56.070;12.698;2022-09-28T02:20:11;11.10;99.90
14210;DHT22;7188;56.070;12.698;2022-09-28T02:22:50;11.20;99.90
14210;DHT22;7188;56.070;12.698;2022-09-28T02:25:49;11.10;99.90
14210;DHT22;7188;56.070;12.698;2022-09-28T02:28:14;11.10;99.90
14210;DHT22;7188;56.070;12.698;2022-09-28T02:30:42;11.10;99.90
14210;DHT22;7188;56.070;12.698;2022-09-28T02:33:15;11.20;99.90
14210;DHT22;7188;56.070;12.698;2022-09-28T02:35:42;11.20;99.90
14210;DHT22;7188;56.070;12.698;2022-09-28T02:38:12;11.20;99.90
14210;DHT22;7188;56.070;12.698;2022-09-28T02:40:39;11.20;99.90
14210;DHT22;7188;56.070;12.698;2022-09-28T02:43:29;11.20;99.90
14210;DHT22;7188;56.070;12.698;2022-09-28T02:46:14;11.20;99.90
14210;DHT22;7188;56.070;12.698;2022-09-28T02:52:12;11.20;99.90
14210;DHT22;7188;56.070;12.698;2022-09-28T02:57:30;11.20;99.90
14210;DHT22;7188;56.070;12.698;2022-09-28T03:00:08;11.20;99.90
14210;DHT22;7188;56.070;12.698;2022-09-28T03:08:31;11.30;99.90
14210;DHT22;7188;56.070;12.698;2022-09-28T03:11:01;11.30;99.90
14210;DHT22;7188;56.070;12.698;2022-09-28T03:13:29;11.30;99.90
14210;DHT22;7188;56.070;12.698;2022-09-28T03:16:13;11.40;99.90
14210;DHT22;7188;56.070;12.698;2022-09-28T03:18:39;11.40;99.90
14210;DHT22;7188;56.070;12.698;2022-09-28T03:21:05;11.40;99.90
14210;DHT22;7188;56.070;12.698;2022-09-28T03:23:31;11.30;99.90
14210;DHT22;7188;56.070;12.698;2022-09-28T03:25:57;11.30;99.90
14210;DHT22;7188;56.070;12.698;2022-09-28T03:28:23;11.30;99.90
14210;DHT22;7188;56.070;12.698;2022-09-28T03:30:49;11.30;99.90
14210;DHT22;7188;56.070;12.698;2022-09-28T03:33:15;11.30;99.90
14210;DHT22;7188;56.070;12.698;2022-09-28T03:35:40;11.20;99.90
14210;DHT22;7188;56.070;12.698;2022-09-28T03:38:06;11.10;99.90
14210;DHT22;7188;56.070;12.698;2022-09-28T03:40:32;11.00;99.90
14210;DHT22;7188;56.070;12.698;2022-09-28T03:42:59;11.00;99.90
14210;DHT22;7188;56.070;12.698;2022-09-28T03:45:25;11.00;99.90
14210;DHT22;7188;56.070;12.698;2022-09-28T03:47:51;10.90;99.90
14210;DHT22;7188;56.070;12.698;2022-09-28T03:50:16;10.80;99.90
14210;DHT22;7188;56.070;12.698;2022-09-28T03:52:42;10.80;99.90
14210;DHT22;7188;56.070;12.698;2022-09-28T03:55:08;10.80;99.90
14210;DHT22;7188;56.070;12.698;2022-09-28T03:57:34;10.90;99.90
14210;DHT22;7188;56.070;12.698;2022-09-28T03:59:59;10.90;99.90
14210;DHT22;7188;56.070;12.698;2022-09-28T04:02:25;10.90;99.90
14210;DHT22;7188;56.070;12.698;2022-09-28T04:04:50;10.90;99.90
14210;DHT22;7188;56.070;12.698;2022-09-28T04:07:16;10.80;99.90
14210;DHT22;7188;56.070;12.698;2022-09-28T04:09:42;10.70;99.90
14210;DHT22;7188;56.070;12.698;2022-09-28T04:12:07;10.80;99.90
14210;DHT22;7188;56.070;12.698;2022-09-28T04:14:33;10.80;99.90
14210;DHT22;7188;56.070;12.698;2022-09-28T04:16:58;10.90;99.90
14210;DHT22;7188;56.070;12.698;2022-09-28T04:19:24;10.90;99.90
14210;DHT22;7188;56.070;12.698;2022-09-28T04:21:51;10.90;99.90
14210;DHT22;7188;56.070;12.698;2022-09-28T04:24:17;10.80;99.90
14210;DHT22;7188;56.070;12.698;2022-09-28T04:26:42;10.80;99.90
14210;DHT22;7188;56.070;12.698;2022-09-28T04:29:09;10.80;99.90
14210;DHT22;7188;56.070;12.698;2022-09-28T04:31:48;10.80;99.90
14210;DHT22;7188;56.070;12.698;2022-09-28T04:34:17;10.80;99.90
14210;DHT22;7188;56.070;12.698;2022-09-28T04:36:43;10.90;99.90
14210;DHT22;7188;56.070;12.698;2022-09-28T04:39:13;10.90;99.90
14210;DHT22;7188;56.070;12.698;2022-09-28T04:41:40;11.00;99.90
14210;DHT22;7188;56.070;12.698;2022-09-28T04:44:07;11.00;99.90
14210;DHT22;7188;56.070;12.698;2022-09-28T04:46:33;10.90;99.90
14210;DHT22;7188;56.070;12.698;2022-09-28T04:48:59;11.00;99.90
14210;DHT22;7188;56.070;12.698;2022-09-28T04:51:24;11.00;99.90
14210;DHT22;7188;56.070;12.698;2022-09-28T04:53:50;10.90;99.90
14210;DHT22;7188;56.070;12.698;2022-09-28T04:56:17;11.00;99.90
14210;DHT22;7188;56.070;12.698;2022-09-28T04:58:43;11.00;99.90
14210;DHT22;7188;56.070;12.698;2022-09-28T05:01:16;11.00;99.90
14210;DHT22;7188;56.070;12.698;2022-09-28T05:03:42;11.00;99.90
14210;DHT22;7188;56.070;12.698;2022-09-28T05:06:11;11.00;99.90
14210;DHT22;7188;56.070;12.698;2022-09-28T05:08:37;11.00;99.90
14210;DHT22;7188;56.070;12.698;2022-09-28T05:11:05;11.10;99.90
14210;DHT22;7188;56.070;12.698;2022-09-28T05:13:32;11.20;99.90
14210;DHT22;7188;56.070;12.698;2022-09-28T05:16:00;11.10;99.90
14210;DHT22;7188;56.070;12.698;2022-09-28T05:18:26;11.10;99.90
14210;DHT22;7188;56.070;12.698;2022-09-28T05:20:51;11.10;99.90
14210;DHT22;7188;56.070;12.698;2022-09-28T05:23:17;11.20;99.90
14210;DHT22;7188;56.070;12.698;2022-09-28T05:25:43;11.20;99.90
14210;DHT22;7188;56.070;12.698;2022-09-28T05:28:10;11.20;99.90
14210;DHT22;7188;56.070;12.698;2022-09-28T05:30:36;11.20;99.90
14210;DHT22;7188;56.070;12.698;2022-09-28T05:33:02;11.20;99.90
14210;DHT22;7188;56.070;12.698;2022-09-28T05:35:28;11.20;99.90
14210;DHT22;7188;56.070;12.698;2022-09-28T05:37:54;11.20;99.90
14210;DHT22;7188;56.070;12.698;2022-09-28T05:40:21;11.10;99.90
14210;DHT22;7188;56.070;12.698;2022-09-28T05:42:46;11.20;99.90
14210;DHT22;7188;56.070;12.698;2022-09-28T05:45:12;11.10;99.90
14210;DHT22;7188;56.070;12.698;2022-09-28T05:47:39;11.10;99.90
14210;DHT22;7188;56.070;12.698;2022-09-28T05:50:07;11.20;99.90
14210;DHT22;7188;56.070;12.698;2022-09-28T05:52:33;11.20;99.90
14210;DHT22;7188;56.070;12.698;2022-09-28T05:54:59;11.20;99.90
14210;DHT22;7188;56.070;12.698;2022-09-28T05:57:25;11.20;99.90
14210;DHT22;7188;56.070;12.698;2022-09-28T05:59:51;11.20;99.90
14210;DHT22;7188;56.070;12.698;2022-09-28T06:02:16;11.20;99.90
14210;DHT22;7188;56.070;12.698;2022-09-28T06:04:42;11.20;99.90
14210;DHT22;7188;56.070;12.698;2022-09-28T06:07:07;11.20;99.90
14210;DHT22;7188;56.070;12.698;2022-09-28T06:09:33;11.20;99.90
14210;DHT22;7188;56.070;12.698;2022-09-28T06:11:59;11.20;99.90
14210;DHT22;7188;56.070;12.698;2022-09-28T06:14:24;11.20;99.90
14210;DHT22;7188;56.070;12.698;2022-09-28T06:16:50;11.20;99.90
14210;DHT22;7188;56.070;12.698;2022-09-28T06:19:16;11.20;99.90
14210;DHT22;7188;56.070;12.698;2022-09-28T06:21:42;11.30;99.90
14210;DHT22;7188;56.070;12.698;2022-09-28T06:24:07;11.30;99.90
14210;DHT22;7188;56.070;12.698;2022-09-28T06:26:33;11.30;99.90
14210;DHT22;7188;56.070;12.698;2022-09-28T06:28:59;11.30;99.90
14210;DHT22;7188;56.070;12.698;2022-09-28T06:31:28;11.30;99.90
14210;DHT22;7188;56.070;12.698;2022-09-28T06:33:54;11.30;99.90
14210;DHT22;7188;56.070;12.698;2022-09-28T06:36:20;11.30;99.90
14210;DHT22;7188;56.070;12.698;2022-09-28T06:38:46;11.30;99.90
14210;DHT22;7188;56.070;12.698;2022-09-28T06:41:12;11.40;99.90
14210;DHT22;7188;56.070;12.698;2022-09-28T06:43:38;11.40;99.90
14210;DHT22;7188;56.070;12.698;2022-09-28T06:46:05;11.40;99.90
14210;DHT22;7188;56.070;12.698;2022-09-28T06:48:31;11.40;99.90
14210;DHT22;7188;56.070;12.698;2022-09-28T06:50:58;11.40;99.90
14210;DHT22;7188;56.070;12.698;2022-09-28T06:53:36;11.40;99.90
14210;DHT22;7188;56.070;12.698;2022-09-28T06:56:02;11.50;99.90
14210;DHT22;7188;56.070;12.698;2022-09-28T06:58:27;11.40;99.90
14210;DHT22;7188;56.070;12.698;2022-09-28T07:00:56;11.40;99.90
14210;DHT22;7188;56.070;12.698;2022-09-28T07:03:24;11.50;99.90
14210;DHT22;7188;56.070;12.698;2022-09-28T07:05:52;11.40;99.90
14210;DHT22;7188;56.070;12.698;2022-09-28T07:08:22;11.50;99.90
14210;DHT22;7188;56.070;12.698;2022-09-28T07:10:53;11.60;99.90
14210;DHT22;7188;56.070;12.698;2022-09-28T07:13:27;11.60;99.90
14210;DHT22;7188;56.070;12.698;2022-09-28T07:15:56;11.50;99.90
14210;DHT22;7188;56.070;12.698;2022-09-28T07:18:24;11.50;99.90
14210;DHT22;7188;56.070;12.698;2022-09-28T07:20:50;11.50;99.90
14210;DHT22;7188;56.070;12.698;2022-09-28T07:23:17;11.50;99.90
14210;DHT22;7188;56.070;12.698;2022-09-28T07:25:43;11.50;99.90
14210;DHT22;7188;56.070;12.698;2022-09-28T07:28:12;11.50;99.90
14210;DHT22;7188;56.070;12.698;2022-09-28T07:30:38;11.50;99.90
14210;DHT22;7188;56.070;12.698;2022-09-28T07:33:06;11.50;99.90
14210;DHT22;7188;56.070;12.698;2022-09-28T07:35:32;11.50;99.90
14210;DHT22;7188;56.070;12.698;2022-09-28T07:38:03;11.60;99.90
14210;DHT22;7188;56.070;12.698;2022-09-28T07:40:30;11.60;99.90
14210;DHT22;7188;56.070;12.698;2022-09-28T07:43:16;11.50;99.90
14210;DHT22;7188;56.070;12.698;2022-09-28T07:45:46;11.60;99.90
14210;DHT22;7188;56.070;12.698;2022-09-28T07:48:12;11.60;99.90
14210;DHT22;7188;56.070;12.698;2022-09-28T07:50:41;11.70;99.90
14210;DHT22;7188;56.070;12.698;2022-09-28T07:53:06;11.80;99.90
14210;DHT22;7188;56.070;12.698;2022-09-28T07:55:32;11.80;99.90
14210;DHT22;7188;56.070;12.698;2022-09-28T07:57:58;11.90;99.90
14210;DHT22;7188;56.070;12.698;2022-09-28T08:00:28;11.90;99.90
14210;DHT22;7188;56.070;12.698;2022-09-28T08:03:02;12.00;99.90
14210;DHT22;7188;56.070;12.698;2022-09-28T08:05:28;11.90;99.90
14210;DHT22;7188;56.070;12.698;2022-09-28T08:07:55;12.10;99.90
14210;DHT22;7188;56.070;12.698;2022-09-28T08:10:23;12.20;99.90
14210;DHT22;7188;56.070;12.698;2022-09-28T08:12:56;12.20;99.90
14210;DHT22;7188;56.070;12.698;2022-09-28T08:15:22;12.20;99.90
14210;DHT22;7188;56.070;12.698;2022-09-28T08:17:49;12.20;99.90
14210;DHT22;7188;56.070;12.698;2022-09-28T08:20:15;12.20;99.90
14210;DHT22;7188;56.070;12.698;2022-09-28T08:23:06;12.30;99.90
14210;DHT22;7188;56.070;12.698;2022-09-28T08:25:33;12.30;99.90
14210;DHT22;7188;56.070;12.698;2022-09-28T08:28:01;12.20;99.90
14210;DHT22;7188;56.070;12.698;2022-09-28T08:30:26;12.20;99.90
14210;DHT22;7188;56.070;12.698;2022-09-28T08:32:52;12.10;99.90
14210;DHT22;7188;56.070;12.698;2022-09-28T08:35:18;12.30;99.90
14210;DHT22;7188;56.070;12.698;2022-09-28T08:37:49;12.40;99.90
14210;DHT22;7188;56.070;12.698;2022-09-28T08:40:21;12.40;99.90
14210;DHT22;7188;56.070;12.698;2022-09-28T08:42:56;12.40;99.90
14210;DHT22;7188;56.070;12.698;2022-09-28T08:45:27;12.50;99.90
14210;DHT22;7188;56.070;12.698;2022-09-28T08:48:05;12.60;99.90
14210;DHT22;7188;56.070;12.698;2022-09-28T08:50:56;12.70;99.90
14210;DHT22;7188;56.070;12.698;2022-09-28T08:53:31;12.70;99.90
14210;DHT22;7188;56.070;12.698;2022-09-28T08:56:03;12.80;99.90
14210;DHT22;7188;56.070;12.698;2022-09-28T08:58:33;12.90;99.90
14210;DHT22;7188;56.070;12.698;2022-09-28T09:01:01;13.00;99.90
14210;DHT22;7188;56.070;12.698;2022-09-28T09:03:34;13.10;99.90
14210;DHT22;7188;56.070;12.698;2022-09-28T09:06:10;13.00;99.90
14210;DHT22;7188;56.070;12.698;2022-09-28T09:11:34;13.10;99.90
14210;DHT22;7188;56.070;12.698;2022-09-28T09:20:10;13.10;86.60
14210;DHT22;7188;56.070;12.698;2022-09-28T09:22:59;13.10;76.00
14210;DHT22;7188;56.070;12.698;2022-09-28T09:25:26;13.10;81.00
14210;DHT22;7188;56.070;12.698;2022-09-28T09:30:36;13.20;99.90
14210;DHT22;7188;56.070;12.698;2022-09-28T09:38:46;13.30;23.00
14210;DHT22;7188;56.070;12.698;2022-09-28T09:47:01;13.30;52.00
14210;DHT22;7188;56.070;12.698;2022-09-28T09:49:37;13.30;20.70
14210;DHT22;7188;56.070;12.698;2022-09-28T09:52:11;13.40;12.50
14210;DHT22;7188;56.070;12.698;2022-09-28T09:55:00;13.40;1.00
14210;DHT22;7188;56.070;12.698;2022-09-28T09:57:37;13.40;1.00
14210;DHT22;7188;56.070;12.698;2022-09-28T10:00:14;13.50;1.00
14210;DHT22;7188;56.070;12.698;2022-09-28T10:02:42;13.50;1.00
14210;DHT22;7188;56.070;12.698;2022-09-28T10:10:29;13.50;1.00
14210;DHT22;7188;56.070;12.698;2022-09-28T10:12:55;13.50;1.00
14210;DHT22;7188;56.070;12.698;2022-09-28T10:15:27;13.50;1.00
14210;DHT22;7188;56.070;12.698;2022-09-28T10:17:54;13.40;1.00
14210;DHT22;7188;56.070;12.698;2022-09-28T10:20:21;13.60;1.00
14210;DHT22;7188;56.070;12.698;2022-09-28T10:22:50;13.60;1.00
14210;DHT22;7188;56.070;12.698;2022-09-28T10:25:16;13.60;1.00
14210;DHT22;7188;56.070;12.698;2022-09-28T10:27:45;13.60;1.00
14210;DHT22;7188;56.070;12.698;2022-09-28T10:30:17;13.70;1.00
14210;DHT22;7188;56.070;12.698;2022-09-28T10:32:48;13.70;1.00
14210;DHT22;7188;56.070;12.698;2022-09-28T10:38:14;13.70;1.00
14210;DHT22;7188;56.070;12.698;2022-09-28T10:46:00;13.80;1.00
14210;DHT22;7188;56.070;12.698;2022-09-28T10:48:29;13.80;1.00
14210;DHT22;7188;56.070;12.698;2022-09-28T10:51:03;13.80;1.00
14210;DHT22;7188;56.070;12.698;2022-09-28T10:53:29;13.80;1.00
14210;DHT22;7188;56.070;12.698;2022-09-28T10:56:00;13.80;1.00
14210;DHT22;7188;56.070;12.698;2022-09-28T10:58:38;13.80;1.00
14210;DHT22;7188;56.070;12.698;2022-09-28T11:01:10;13.80;1.00
14210;DHT22;7188;56.070;12.698;2022-09-28T11:04:01;13.80;1.00
14210;DHT22;7188;56.070;12.698;2022-09-28T11:06:37;13.80;1.00
14210;DHT22;7188;56.070;12.698;2022-09-28T11:09:08;13.90;1.00
14210;DHT22;7188;56.070;12.698;2022-09-28T11:11:47;14.00;1.00
14210;DHT22;7188;56.070;12.698;2022-09-28T11:14:30;14.00;1.00
14210;DHT22;7188;56.070;12.698;2022-09-28T11:19:57;14.00;1.00
14210;DHT22;7188;56.070;12.698;2022-09-28T11:30:46;13.80;1.00
14210;DHT22;7188;56.070;12.698;2022-09-28T11:33:33;13.80;1.00
14210;DHT22;7188;56.070;12.698;2022-09-28T11:41:48;13.80;1.00
14210;DHT22;7188;56.070;12.698;2022-09-28T11:44:28;13.80;1.00
14210;DHT22;7188;56.070;12.698;2022-09-28T11:50:35;13.80;1.00
14210;DHT22;7188;56.070;12.698;2022-09-28T11:55:43;13.60;1.00
14210;DHT22;7188;56.070;12.698;2022-09-28T11:58:23;13.60;1.00
14210;DHT22;7188;56.070;12.698;2022-09-28T12:00:53;13.50;1.00
14210;DHT22;7188;56.070;12.698;2022-09-28T12:03:25;13.50;1.00
14210;DHT22;7188;56.070;12.698;2022-09-28T12:06:01;13.50;1.00
14210;DHT22;7188;56.070;12.698;2022-09-28T12:08:31;13.40;1.00
14210;DHT22;7188;56.070;12.698;2022-09-28T12:13:45;13.30;1.00
14210;DHT22;7188;56.070;12.698;2022-09-28T12:16:24;13.20;1.00
14210;DHT22;7188;56.070;12.698;2022-09-28T12:19:03;13.10;1.00
14210;DHT22;7188;56.070;12.698;2022-09-28T12:21:55;12.90;1.00
14210;DHT22;7188;56.070;12.698;2022-09-28T12:24:41;12.80;15.70
14210;DHT22;7188;56.070;12.698;2022-09-28T12:30:13;12.70;55.90
14210;DHT22;7188;56.070;12.698;2022-09-28T12:32:57;12.60;76.70
14210;DHT22;7188;56.070;12.698;2022-09-28T12:52:28;12.60;99.90
14210;DHT22;7188;56.070;12.698;2022-09-28T13:00:12;12.60;99.90
14210;DHT22;7188;56.070;12.698;2022-09-28T13:02:53;12.60;99.90
14210;DHT22;7188;56.070;12.698;2022-09-28T13:08:05;12.80;99.90
14210;DHT22;7188;56.070;12.698;2022-09-28T13:10:53;12.90;99.90
14210;DHT22;7188;56.070;12.698;2022-09-28T13:21:36;12.70;99.90
14210;DHT22;7188;56.070;12.698;2022-09-28T13:24:04;12.60;99.90
14210;DHT22;7188;56.070;12.698;2022-09-28T13:26:35;12.60;99.90
14210;DHT22;7188;56.070;12.698;2022-09-28T13:29:11;12.70;99.90
14210;DHT22;7188;56.070;12.698;2022-09-28T13:31:50;12.70;99.90
14210;DHT22;7188;56.070;12.698;2022-09-28T13:34:28;12.60;99.90
14210;DHT22;7188;56.070;12.698;2022-09-28T13:42:20;12.50;99.90
14210;DHT22;7188;56.070;12.698;2022-09-28T13:53:42;12.00;99.90
14210;DHT22;7188;56.070;12.698;2022-09-28T13:56:36;12.00;99.90
14210;DHT22;7188;56.070;12.698;2022-09-28T13:59:25;12.00;99.90
14210;DHT22;7188;56.070;12.698;2022-09-28T14:02:04;12.00;99.90
14210;DHT22;7188;56.070;12.698;2022-09-28T14:07:25;12.10;99.90
14210;DHT22;7188;56.070;12.698;2022-09-28T14:10:21;12.10;99.90
14210;DHT22;7188;56.070;12.698;2022-09-28T14:12:50;12.20;99.90
14210;DHT22;7188;56.070;12.698;2022-09-28T14:20:23;12.30;99.90
14210;DHT22;7188;56.070;12.698;2022-09-28T14:23:11;12.30;99.90
14210;DHT22;7188;56.070;12.698;2022-09-28T14:25:57;12.20;99.90
14210;DHT22;7188;56.070;12.698;2022-09-28T14:28:47;12.20;99.90
14210;DHT22;7188;56.070;12.698;2022-09-28T14:31:26;12.20;99.90
14210;DHT22;7188;56.070;12.698;2022-09-28T14:33:55;12.20;99.90
14210;DHT22;7188;56.070;12.698;2022-09-28T14:36:36;12.10;99.90
14210;DHT22;7188;56.070;12.698;2022-09-28T14:39:30;12.10;99.90
14210;DHT22;7188;56.070;12.698;2022-09-28T14:42:24;12.10;99.90
14210;DHT22;7188;56.070;12.698;2022-09-28T14:50:22;11.80;99.90
14210;DHT22;7188;56.070;12.698;2022-09-28T14:53:13;11.70;99.90
14210;DHT22;7188;56.070;12.698;2022-09-28T14:55:49;11.60;99.90
14210;DHT22;7188;56.070;12.698;2022-09-28T14:58:35;11.60;99.90
14210;DHT22;7188;56.070;12.698;2022-09-28T15:01:11;11.60;99.90
14210;DHT22;7188;56.070;12.698;2022-09-28T15:03:42;11.60;99.90
14210;DHT22;7188;56.070;12.698;2022-09-28T15:06:14;11.60;99.90
14210;DHT22;7188;56.070;12.698;2022-09-28T15:08:44;11.60;99.90
14210;DHT22;7188;56.070;12.698;2022-09-28T15:11:14;11.60;99.90
14210;DHT22;7188;56.070;12.698;2022-09-28T15:13:41;11.50;99.90
14210;DHT22;7188;56.070;12.698;2022-09-28T15:16:09;11.60;99.90
14210;DHT22;7188;56.070;12.698;2022-09-28T15:18:43;11.60;99.90
14210;DHT22;7188;56.070;12.698;2022-09-28T15:21:12;11.70;99.90
14210;DHT22;7188;56.070;12.698;2022-09-28T15:23:40;11.80;99.90
14210;DHT22;7188;56.070;12.698;2022-09-28T15:26:18;11.80;99.90
14210;DHT22;7188;56.070;12.698;2022-09-28T15:28:45;11.80;99.90
14210;DHT22;7188;56.070;12.698;2022-09-28T15:31:17;11.80;99.90
14210;DHT22;7188;56.070;12.698;2022-09-28T15:33:43;11.80;99.90
14210;DHT22;7188;56.070;12.698;2022-09-28T15:36:29;11.80;99.90
14210;DHT22;7188;56.070;12.698;2022-09-28T15:38:59;11.80;99.90
14210;DHT22;7188;56.070;12.698;2022-09-28T15:41:25;11.80;99.90
14210;DHT22;7188;56.070;12.698;2022-09-28T15:46:38;11.80;99.90
14210;DHT22;7188;56.070;12.698;2022-09-28T15:49:19;11.80;99.90
14210;DHT22;7188;56.070;12.698;2022-09-28T15:51:49;11.80;99.90
14210;DHT22;7188;56.070;12.698;2022-09-28T15:54:27;11.80;99.90
14210;DHT22;7188;56.070;12.698;2022-09-28T15:56:57;11.80;99.90
14210;DHT22;7188;56.070;12.698;2022-09-28T15:59:31;11.90;99.90
14210;DHT22;7188;56.070;12.698;2022-09-28T16:02:15;12.00;99.90
14210;DHT22;7188;56.070;12.698;2022-09-28T16:04:48;11.90;99.90
14210;DHT22;7188;56.070;12.698;2022-09-28T16:07:33;11.80;99.90
14210;DHT22;7188;56.070;12.698;2022-09-28T16:17:54;11.50;99.90
14210;DHT22;7188;56.070;12.698;2022-09-28T16:20:36;11.60;99.90
14210;DHT22;7188;56.070;12.698;2022-09-28T16:25:47;11.50;99.90
14210;DHT22;7188;56.070;12.698;2022-09-28T16:28:44;11.60;99.90
14210;DHT22;7188;56.070;12.698;2022-09-28T16:36:15;11.50;99.90
14210;DHT22;7188;56.070;12.698;2022-09-28T16:38:45;11.40;99.90
14210;DHT22;7188;56.070;12.698;2022-09-28T16:41:11;11.40;99.90
14210;DHT22;7188;56.070;12.698;2022-09-28T16:43:38;11.30;99.90
14210;DHT22;7188;56.070;12.698;2022-09-28T16:46:05;11.40;99.90
14210;DHT22;7188;56.070;12.698;2022-09-28T16:48:36;11.30;99.90
14210;DHT22;7188;56.070;12.698;2022-09-28T16:51:04;11.30;99.90
14210;DHT22;7188;56.070;12.698;2022-09-28T16:53:29;11.30;99.90
14210;DHT22;7188;56.070;12.698;2022-09-28T16:56:14;11.20;99.90
14210;DHT22;7188;56.070;12.698;2022-09-28T16:58:39;11.20;99.90
14210;DHT22;7188;56.070;12.698;2022-09-28T17:01:08;11.20;99.90
14210;DHT22;7188;56.070;12.698;2022-09-28T17:03:35;11.10;99.90
14210;DHT22;7188;56.070;12.698;2022-09-28T17:06:04;11.20;99.90
14210;DHT22;7188;56.070;12.698;2022-09-28T17:08:33;11.10;99.90
14210;DHT22;7188;56.070;12.698;2022-09-28T17:11:00;11.10;99.90
14210;DHT22;7188;56.070;12.698;2022-09-28T17:13:29;11.00;99.90
14210;DHT22;7188;56.070;12.698;2022-09-28T17:16:03;11.00;99.90
14210;DHT22;7188;56.070;12.698;2022-09-28T17:18:31;10.90;99.90
14210;DHT22;7188;56.070;12.698;2022-09-28T17:21:00;10.90;99.90
14210;DHT22;7188;56.070;12.698;2022-09-28T17:23:27;10.90;99.90
14210;DHT22;7188;56.070;12.698;2022-09-28T17:25:53;10.80;99.90
14210;DHT22;7188;56.070;12.698;2022-09-28T17:28:31;10.80;99.90
14210;DHT22;7188;56.070;12.698;2022-09-28T17:30:57;10.70;99.90
14210;DHT22;7188;56.070;12.698;2022-09-28T17:33:22;10.70;99.90
14210;DHT22;7188;56.070;12.698;2022-09-28T17:35:50;10.70;99.90
14210;DHT22;7188;56.070;12.698;2022-09-28T17:38:16;10.70;99.90
14210;DHT22;7188;56.070;12.698;2022-09-28T17:40:43;10.80;99.90
14210;DHT22;7188;56.070;12.698;2022-09-28T17:43:09;10.80;99.90
14210;DHT22;7188;56.070;12.698;2022-09-28T17:45:37;10.80;99.90
14210;DHT22;7188;56.070;12.698;2022-09-28T17:48:13;10.80;99.90
14210;DHT22;7188;56.070;12.698;2022-09-28T17:50:43;10.80;99.90
14210;DHT22;7188;56.070;12.698;2022-09-28T17:53:09;10.70;99.90
14210;DHT22;7188;56.070;12.698;2022-09-28T17:55:36;10.70;99.90
14210;DHT22;7188;56.070;12.698;2022-09-28T17:58:19;10.80;99.90
14210;DHT22;7188;56.070;12.698;2022-09-28T18:00:46;10.80;99.90
14210;DHT22;7188;56.070;12.698;2022-09-28T18:03:14;10.80;99.90
14210;DHT22;7188;56.070;12.698;2022-09-28T18:05:44;10.80;99.90
14210;DHT22;7188;56.070;12.698;2022-09-28T18:08:13;10.80;99.90
14210;DHT22;7188;56.070;12.698;2022-09-28T18:10:39;10.70;99.90
14210;DHT22;7188;56.070;12.698;2022-09-28T18:13:05;10.70;99.90
14210;DHT22;7188;56.070;12.698;2022-09-28T18:15:31;10.80;99.90
14210;DHT22;7188;56.070;12.698;2022-09-28T18:17:56;10.80;99.90
14210;DHT22;7188;56.070;12.698;2022-09-28T18:20:22;10.80;99.90
14210;DHT22;7188;56.070;12.698;2022-09-28T18:22:47;10.70;99.90
14210;DHT22;7188;56.070;12.698;2022-09-28T18:25:13;10.70;99.90
14210;DHT22;7188;56.070;12.698;2022-09-28T18:27:38;10.80;99.90
14210;DHT22;7188;56.070;12.698;2022-09-28T18:30:05;10.80;99.90
14210;DHT22;7188;56.070;12.698;2022-09-28T18:32:33;10.80;99.90
14210;DHT22;7188;56.070;12.698;2022-09-28T18:35:02;10.70;99.90
14210;DHT22;7188;56.070;12.698;2022-09-28T18:37:27;10.80;99.90
14210;DHT22;7188;56.070;12.698;2022-09-28T18:39:53;10.80;99.90
14210;DHT22;7188;56.070;12.698;2022-09-28T18:42:18;10.80;99.90
14210;DHT22;7188;56.070;12.698;2022-09-28T18:44:45;10.70;99.90
14210;DHT22;7188;56.070;12.698;2022-09-28T18:47:11;10.70;99.90
14210;DHT22;7188;56.070;12.698;2022-09-28T18:49:38;10.60;99.90